6MA6 weather

Cotuit Heliport
Cotuit, Massachusetts, United States

Public forecast

Using degrees Fahrenheit for public forecast. Weather courtesy of forecast.io.

METAR (pilot weather report)

Closest report is Cape Cod Coast Guard Air Station, 4.3 nm (8.0 km) NW. Retrieved 2019/09/15 07:56 UTC (49 minutes ago):

KFMH 150756Z 26009KT 10SM OVC005 20/20 A3013

TAF (pilot weather forecast)

Forecast is more than 12 hours old.

Closest forecast is Cape Cod Coast Guard Air Station, 4.3 nm (8.0 km) NW. Retrieved 2019/09/14 00:33 UTC (1 day ago):

TAF KFMH 142330Z 1500/1524 20008KT P6SM VCSH BKN060 FM150700 22007KT P6SM VCSH OVC025 FM151000 23007KT P6SM VCSH OVC008 FM151400 26006KT P6SM OVC008 FM151600 26006KT 5SM BR BKN020 FM151900 23007KT 6SM BR FEW020